createdAt,value
2022-09-12T00:00:02.950Z,1.90
2022-09-12T00:02:39.218Z,1.80
2022-09-12T00:05:07.523Z,2.00
2022-09-12T00:07:35.170Z,2.03
2022-09-12T00:10:02.613Z,1.85
2022-09-12T00:12:30.270Z,1.85
2022-09-12T00:14:57.921Z,1.90
2022-09-12T00:17:25.427Z,2.00
2022-09-12T00:19:53.293Z,1.90
2022-09-12T00:22:20.727Z,2.17
2022-09-12T00:24:48.464Z,1.85
2022-09-12T00:27:16.193Z,1.90
2022-09-12T00:29:43.811Z,1.92
2022-09-12T00:32:11.530Z,2.20
2022-09-12T00:34:39.509Z,1.90
2022-09-12T00:37:06.980Z,1.95
2022-09-12T00:39:34.600Z,2.00
2022-09-12T00:42:02.079Z,1.92
2022-09-12T00:44:29.676Z,1.55
2022-09-12T00:47:17.453Z,1.70
2022-09-12T00:49:47.999Z,1.73
2022-09-12T00:52:24.160Z,1.58
2022-09-12T00:54:57.933Z,1.80
2022-09-12T00:57:28.859Z,1.70
2022-09-12T01:00:12.568Z,1.67
2022-09-12T01:02:40.320Z,1.60
2022-09-12T01:05:09.179Z,1.73
2022-09-12T01:07:40.746Z,1.60
2022-09-12T01:10:09.885Z,1.40
2022-09-12T01:12:40.944Z,1.55
2022-09-12T01:15:09.286Z,1.67
2022-09-12T01:17:52.912Z,1.52
2022-09-12T01:20:20.692Z,1.63
2022-09-12T01:23:07.596Z,1.80
2022-09-12T01:25:54.033Z,1.70
2022-09-12T01:28:24.545Z,1.70
2022-09-12T01:31:07.342Z,1.63
2022-09-12T01:33:47.268Z,1.58
2022-09-12T01:36:17.800Z,1.50
2022-09-12T01:38:48.662Z,1.60
2022-09-12T01:41:42.628Z,1.83
2022-09-12T01:44:11.338Z,1.48
2022-09-12T01:46:45.705Z,1.38
2022-09-12T01:49:17.309Z,1.30
2022-09-12T01:52:04.616Z,1.33
2022-09-12T01:54:55.693Z,1.30
2022-09-12T01:57:26.569Z,1.20
2022-09-12T01:59:57.141Z,1.40
2022-09-12T02:02:30.539Z,1.40
2022-09-12T02:04:58.196Z,1.23
2022-09-12T02:07:32.488Z,1.30
2022-09-12T02:10:20.263Z,1.60
2022-09-12T02:12:54.960Z,1.40
2022-09-12T02:15:25.042Z,1.30
2022-09-12T02:17:53.060Z,1.42
2022-09-12T02:20:44.423Z,1.50
2022-09-12T02:23:13.967Z,1.30
2022-09-12T02:25:44.085Z,1.27
2022-09-12T02:28:13.635Z,1.55
2022-09-12T02:30:44.136Z,1.30
2022-09-12T02:33:17.099Z,1.50
2022-09-12T02:35:56.837Z,1.60
2022-09-12T02:38:24.693Z,2.03
2022-09-12T02:40:52.501Z,2.03
2022-09-12T02:43:20.174Z,1.70
2022-09-12T02:45:48.018Z,1.50
2022-09-12T02:48:29.152Z,1.40
2022-09-12T02:50:57.049Z,1.20
2022-09-12T02:53:24.750Z,1.40
2022-09-12T02:55:52.508Z,1.38
2022-09-12T02:58:22.190Z,1.30
2022-09-12T03:00:57.631Z,1.60
2022-09-12T03:03:45.559Z,1.40
2022-09-12T03:06:19.498Z,1.48
2022-09-12T03:08:49.996Z,1.50
2022-09-12T03:11:36.467Z,1.48
2022-09-12T03:14:13.780Z,1.48
2022-09-12T03:16:59.998Z,1.80
2022-09-12T03:19:45.990Z,1.70
2022-09-12T03:22:13.565Z,1.55
2022-09-12T03:24:49.315Z,1.60
2022-09-12T03:27:19.814Z,1.65
2022-09-12T03:29:48.678Z,1.67
2022-09-12T03:32:16.571Z,1.50
2022-09-12T03:34:44.475Z,1.65
2022-09-12T03:37:11.971Z,1.70
2022-09-12T03:39:39.534Z,1.60
2022-09-12T03:42:07.085Z,1.67
2022-09-12T03:44:34.664Z,1.75
2022-09-12T03:47:02.174Z,1.60
2022-09-12T03:49:29.797Z,1.55
2022-09-12T03:51:57.269Z,1.65
2022-09-12T03:54:24.920Z,1.48
2022-09-12T03:56:52.758Z,1.65
2022-09-12T03:59:20.676Z,1.70
2022-09-12T04:01:48.232Z,1.73
2022-09-12T04:04:15.694Z,1.65
2022-09-12T04:06:44.235Z,1.80
2022-09-12T04:09:11.702Z,1.60
2022-09-12T04:11:39.352Z,1.70
2022-09-12T04:14:06.875Z,1.70
2022-09-12T04:16:34.488Z,1.73
2022-09-12T04:19:02.039Z,1.70
2022-09-12T04:21:29.623Z,2.20
2022-09-12T04:23:57.168Z,2.30
2022-09-12T04:26:24.727Z,2.42
2022-09-12T04:28:56.373Z,2.20
2022-09-12T04:31:24.359Z,2.10
2022-09-12T04:33:55.849Z,2.25
2022-09-12T04:36:23.882Z,2.45
2022-09-12T04:38:51.841Z,2.22
2022-09-12T04:41:20.990Z,2.75
2022-09-12T04:43:49.296Z,2.40
2022-09-12T04:46:20.070Z,2.28
2022-09-12T04:48:48.078Z,2.40
2022-09-12T04:51:16.826Z,2.75
2022-09-12T04:53:44.700Z,2.70
2022-09-12T04:56:12.386Z,2.53
2022-09-12T04:58:39.852Z,2.55
2022-09-12T05:01:08.387Z,2.58
2022-09-12T05:03:36.159Z,2.35
2022-09-12T05:06:04.517Z,2.27
2022-09-12T05:08:32.204Z,2.50
2022-09-12T05:11:03.885Z,2.40
2022-09-12T05:13:31.483Z,2.70
2022-09-12T05:15:59.816Z,2.85
2022-09-12T05:18:27.732Z,2.40
2022-09-12T05:20:55.493Z,2.88
2022-09-12T05:23:24.029Z,3.07
2022-09-12T05:25:53.607Z,2.60
2022-09-12T05:28:21.826Z,2.63
2022-09-12T05:30:49.509Z,2.30
2022-09-12T05:33:17.076Z,2.50
2022-09-12T05:35:52.159Z,2.70
2022-09-12T05:38:19.744Z,2.78
2022-09-12T05:40:47.189Z,2.85
2022-09-12T05:43:14.851Z,3.00
2022-09-12T05:45:42.437Z,2.90
2022-09-12T05:48:09.953Z,3.80
2022-09-12T05:50:37.547Z,3.60
2022-09-12T05:53:05.086Z,3.00
2022-09-12T05:55:33.289Z,2.70
2022-09-12T05:58:00.839Z,2.95
2022-09-12T06:00:33.303Z,3.10
2022-09-12T06:03:01.751Z,2.67
2022-09-12T06:05:29.352Z,2.45
2022-09-12T06:07:56.850Z,2.50
2022-09-12T06:10:26.467Z,2.45
2022-09-12T06:12:55.005Z,2.10
2022-09-12T06:17:51.500Z,2.00
2022-09-12T06:22:48.499Z,2.10
2022-09-12T06:25:16.070Z,3.78
2022-09-12T06:27:43.550Z,2.40
2022-09-12T06:30:11.254Z,2.30
2022-09-12T06:32:38.736Z,2.42
2022-09-12T06:35:06.295Z,2.60
2022-09-12T06:37:33.744Z,2.40
2022-09-12T06:40:02.007Z,2.42
2022-09-12T06:42:29.775Z,2.08
2022-09-12T06:44:58.003Z,2.28
2022-09-12T06:47:25.605Z,2.08
2022-09-12T06:49:53.198Z,1.90
2022-09-12T06:52:20.706Z,2.22
2022-09-12T06:54:48.481Z,2.17
2022-09-12T06:57:16.043Z,2.10
2022-09-12T06:59:43.627Z,1.85
2022-09-12T07:02:11.346Z,1.80
2022-09-12T07:04:38.913Z,2.23
2022-09-12T07:07:06.817Z,2.30
2022-09-12T07:09:34.376Z,1.60
2022-09-12T07:12:04.604Z,2.50
2022-09-12T07:14:32.078Z,1.55
2022-09-12T07:16:59.936Z,2.00
2022-09-12T07:19:27.478Z,1.80
2022-09-12T07:21:58.561Z,1.55
2022-09-12T07:24:26.522Z,1.80
2022-09-12T07:26:54.061Z,2.08
2022-09-12T07:29:38.069Z,1.70
2022-09-12T07:32:06.716Z,1.80
2022-09-12T07:34:34.539Z,8.25
2022-09-12T07:37:02.157Z,5.77
2022-09-12T07:39:29.694Z,2.58
2022-09-12T07:41:58.057Z,2.05
2022-09-12T07:44:26.997Z,1.42
2022-09-12T07:46:54.534Z,2.80
2022-09-12T07:49:22.154Z,1.50
2022-09-12T07:51:49.736Z,1.50
2022-09-12T07:54:17.874Z,1.63
2022-09-12T07:56:46.008Z,1.60
2022-09-12T07:59:13.737Z,2.45
2022-09-12T08:01:41.797Z,1.88
2022-09-12T08:04:09.972Z,1.65
2022-09-12T08:06:37.584Z,1.92
2022-09-12T08:09:05.342Z,1.80
2022-09-12T08:11:32.885Z,2.00
2022-09-12T08:14:03.124Z,1.88
2022-09-12T08:16:31.700Z,1.75
2022-09-12T08:19:00.962Z,1.85
2022-09-12T08:21:30.000Z,1.65
2022-09-12T08:23:59.246Z,2.08
2022-09-12T08:26:27.137Z,2.20
2022-09-12T08:28:54.950Z,2.30
2022-09-12T08:31:24.779Z,1.70
2022-09-12T08:33:52.645Z,1.60
2022-09-12T08:36:21.444Z,2.72
2022-09-12T08:38:50.806Z,2.50
2022-09-12T08:41:30.552Z,1.48
2022-09-12T08:44:09.869Z,1.50
2022-09-12T08:46:57.760Z,1.98
2022-09-12T08:49:25.392Z,1.60
2022-09-12T08:51:53.029Z,1.70
2022-09-12T08:54:22.379Z,1.67
2022-09-12T08:56:49.959Z,1.60
2022-09-12T08:59:17.586Z,1.73
2022-09-12T09:01:46.403Z,1.60
2022-09-12T09:06:59.858Z,1.90
2022-09-12T09:09:30.555Z,1.60
2022-09-12T09:12:01.323Z,1.65
2022-09-12T09:14:50.864Z,1.30
2022-09-12T09:17:25.395Z,1.40
2022-09-12T09:20:10.349Z,1.70
2022-09-12T09:22:45.191Z,2.00
2022-09-12T09:25:24.187Z,1.35
2022-09-12T09:27:56.001Z,1.85
2022-09-12T09:30:23.942Z,1.70
2022-09-12T09:32:53.710Z,1.70
2022-09-12T09:35:34.353Z,1.50
2022-09-12T09:38:28.646Z,1.75
2022-09-12T09:41:13.422Z,1.65
2022-09-12T09:43:41.099Z,1.70
2022-09-12T09:46:08.896Z,1.75
2022-09-12T09:48:42.114Z,1.92
2022-09-12T09:51:09.966Z,1.73
2022-09-12T09:53:49.135Z,2.90
2022-09-12T09:56:28.012Z,2.47
2022-09-12T09:58:55.701Z,1.95
2022-09-12T10:01:23.309Z,2.40
2022-09-12T10:03:52.605Z,2.30
2022-09-12T10:06:25.465Z,1.85
2022-09-12T10:09:04.282Z,1.80
2022-09-12T10:11:33.620Z,1.98
2022-09-12T10:14:01.520Z,2.45
2022-09-12T10:16:31.320Z,2.65
2022-09-12T10:18:59.975Z,1.77
2022-09-12T10:24:02.171Z,1.80
2022-09-12T10:26:33.654Z,1.60
2022-09-12T10:29:04.802Z,1.48
2022-09-12T10:31:43.411Z,1.40
2022-09-12T10:34:21.287Z,1.50
2022-09-12T10:36:49.056Z,1.70
2022-09-12T10:39:20.218Z,1.67
2022-09-12T10:41:47.963Z,2.00
2022-09-12T10:44:20.182Z,2.77
2022-09-12T10:46:47.843Z,2.03
2022-09-12T10:49:24.424Z,1.80
2022-09-12T10:51:54.137Z,1.15
2022-09-12T10:54:25.862Z,1.42
2022-09-12T10:57:22.856Z,1.70
2022-09-12T10:59:50.750Z,1.00
2022-09-12T11:02:21.611Z,1.20
2022-09-12T11:05:01.420Z,1.40
2022-09-12T11:07:38.932Z,1.00
2022-09-12T11:10:23.706Z,0.93
2022-09-12T11:13:14.553Z,1.23
2022-09-12T11:15:45.140Z,1.20
2022-09-12T11:18:21.958Z,1.20
2022-09-12T11:21:05.046Z,1.50
2022-09-12T11:23:48.001Z,1.60
2022-09-12T11:26:25.987Z,1.35
2022-09-12T11:29:08.692Z,1.10
2022-09-12T11:31:55.207Z,1.00
2022-09-12T11:34:34.939Z,1.00
2022-09-12T11:37:20.768Z,1.10
2022-09-12T11:39:54.748Z,1.05
2022-09-12T11:42:26.472Z,1.50
2022-09-12T11:45:00.716Z,1.20
2022-09-12T11:47:29.735Z,1.48
2022-09-12T11:49:57.592Z,1.15
2022-09-12T11:52:25.574Z,1.20
2022-09-12T11:55:05.144Z,1.13
2022-09-12T11:57:36.106Z,0.82
2022-09-12T12:00:18.293Z,1.10
2022-09-12T12:03:04.454Z,0.98
2022-09-12T12:05:35.399Z,1.10
2022-09-12T12:08:05.784Z,0.93
2022-09-12T12:10:33.381Z,1.27
2022-09-12T12:13:02.386Z,0.90
2022-09-12T12:15:30.528Z,1.08
2022-09-12T12:18:02.738Z,1.52
2022-09-12T12:20:30.506Z,1.00
2022-09-12T12:22:58.181Z,1.07
2022-09-12T12:25:30.034Z,1.13
2022-09-12T12:28:02.087Z,1.40
2022-09-12T12:30:33.596Z,1.27
2022-09-12T12:33:10.662Z,1.60
2022-09-12T12:35:40.768Z,1.75
2022-09-12T12:38:27.303Z,1.00
2022-09-12T12:40:55.212Z,1.42
2022-09-12T12:43:32.074Z,1.42
2022-09-12T12:46:02.134Z,1.48
2022-09-12T12:48:31.528Z,1.50
2022-09-12T12:51:21.363Z,1.42
2022-09-12T12:53:49.013Z,1.20
2022-09-12T12:56:38.108Z,1.20
2022-09-12T12:59:13.853Z,1.10
2022-09-12T13:01:45.900Z,1.10
2022-09-12T13:04:19.069Z,1.30
2022-09-12T13:06:48.394Z,1.55
2022-09-12T13:09:48.395Z,1.70
2022-09-12T13:12:20.485Z,1.40
2022-09-12T13:14:48.033Z,2.70
2022-09-12T13:17:19.043Z,1.95
2022-09-12T13:19:47.215Z,1.50
2022-09-12T13:22:14.934Z,1.30
2022-09-12T13:24:48.952Z,1.50
2022-09-12T13:27:24.492Z,1.40
2022-09-12T13:30:12.464Z,1.45
2022-09-12T13:32:40.263Z,1.50
2022-09-12T13:35:30.843Z,1.58
2022-09-12T13:38:11.931Z,1.25
2022-09-12T13:40:48.187Z,1.65
2022-09-12T13:43:17.238Z,1.55
2022-09-12T13:45:46.686Z,1.60
2022-09-12T13:48:25.576Z,1.58
2022-09-12T13:50:58.297Z,1.63
2022-09-12T13:53:28.502Z,1.40
2022-09-12T13:55:58.756Z,1.30
2022-09-12T13:58:27.702Z,1.30
2022-09-12T14:01:21.646Z,1.10
2022-09-12T14:04:09.170Z,1.10
2022-09-12T14:06:49.751Z,1.15
2022-09-12T14:09:29.248Z,1.33
2022-09-12T14:11:57.386Z,1.00
2022-09-12T14:14:36.181Z,1.52
2022-09-12T14:17:24.308Z,1.17
2022-09-12T14:19:52.972Z,1.17
2022-09-12T14:24:51.937Z,1.40
2022-09-12T14:27:20.980Z,1.42
2022-09-12T14:29:48.658Z,1.08
2022-09-12T14:32:25.769Z,1.00
2022-09-12T14:35:12.053Z,1.02
2022-09-12T14:37:40.616Z,1.10
2022-09-12T14:40:19.546Z,1.20
2022-09-12T14:42:49.744Z,1.55
2022-09-12T14:45:19.011Z,2.05
2022-09-12T14:47:49.801Z,1.40
2022-09-12T14:50:18.940Z,1.73
2022-09-12T14:52:46.440Z,1.38
2022-09-12T14:55:17.333Z,1.27
2022-09-12T14:57:45.481Z,1.30
2022-09-12T15:00:12.930Z,1.50
2022-09-12T15:02:44.851Z,1.50
2022-09-12T15:05:12.394Z,1.60
2022-09-12T15:07:39.847Z,1.48
2022-09-12T15:10:07.429Z,1.40
2022-09-12T15:12:34.891Z,1.38
2022-09-12T15:15:22.608Z,1.50
2022-09-12T15:17:50.032Z,1.50
2022-09-12T15:20:17.674Z,1.30
2022-09-12T15:22:45.188Z,1.40
2022-09-12T15:25:13.876Z,1.38
2022-09-12T15:30:10.450Z,1.50
2022-09-12T15:32:38.223Z,1.60
2022-09-12T15:35:14.625Z,1.20
2022-09-12T15:37:42.366Z,1.45
2022-09-12T15:40:10.582Z,1.23
2022-09-12T15:42:38.103Z,1.65
2022-09-12T15:45:31.887Z,1.80
2022-09-12T15:48:00.690Z,1.60
2022-09-12T15:50:28.491Z,1.42
2022-09-12T15:52:56.840Z,1.67
2022-09-12T15:55:25.623Z,1.42
2022-09-12T15:57:53.189Z,1.70
2022-09-12T16:00:21.095Z,2.50
2022-09-12T16:02:50.241Z,2.05
2022-09-12T16:05:19.722Z,1.92
2022-09-12T16:07:47.305Z,2.63
2022-09-12T16:10:16.014Z,2.53
2022-09-12T16:12:43.864Z,2.15
2022-09-12T16:15:12.848Z,1.80
2022-09-12T16:17:40.378Z,1.70
2022-09-12T16:20:08.129Z,1.90
2022-09-12T16:22:35.800Z,2.33
2022-09-12T16:25:03.546Z,2.38
2022-09-12T16:27:31.173Z,3.13
2022-09-12T16:29:58.964Z,1.70
2022-09-12T16:32:26.728Z,1.70
2022-09-12T16:34:54.273Z,1.85
2022-09-12T16:37:22.075Z,1.50
2022-09-12T16:39:49.962Z,1.70
2022-09-12T16:42:19.455Z,1.92
2022-09-12T16:44:47.727Z,1.90
2022-09-12T16:47:15.912Z,1.60
2022-09-12T16:49:43.625Z,1.85
2022-09-12T16:52:12.809Z,2.30
2022-09-12T16:54:40.822Z,2.40
2022-09-12T16:57:08.310Z,2.42
2022-09-12T16:59:36.059Z,6.22
2022-09-12T17:02:03.907Z,5.00
2022-09-12T17:04:31.538Z,2.20
2022-09-12T17:06:59.792Z,2.70
2022-09-12T17:09:28.286Z,2.92
2022-09-12T17:11:56.791Z,2.13
2022-09-12T17:16:52.207Z,3.13
2022-09-12T17:19:28.214Z,2.92
2022-09-12T17:21:56.261Z,3.70
2022-09-12T17:24:24.038Z,2.87
2022-09-12T17:26:51.906Z,3.00
2022-09-12T17:29:19.587Z,2.70
2022-09-12T17:31:47.431Z,2.72
2022-09-12T17:34:16.301Z,2.97
2022-09-12T17:36:44.727Z,2.70
2022-09-12T17:39:13.050Z,2.85
2022-09-12T17:41:41.843Z,2.83
2022-09-12T17:44:11.714Z,2.80
2022-09-12T17:46:39.780Z,3.70
2022-09-12T17:49:08.877Z,8.77
2022-09-12T17:51:36.624Z,4.32
2022-09-12T17:54:06.239Z,4.22
2022-09-12T17:56:34.650Z,3.70
2022-09-12T17:59:02.573Z,4.20
2022-09-12T18:01:49.255Z,3.60
2022-09-12T18:04:17.309Z,3.95
2022-09-12T18:06:48.935Z,4.07
2022-09-12T18:09:20.887Z,4.03
2022-09-12T18:11:49.155Z,4.00
2022-09-12T18:14:17.277Z,5.72
2022-09-12T18:16:44.993Z,4.38
2022-09-12T18:19:12.489Z,4.78
2022-09-12T18:21:40.286Z,4.10
2022-09-12T18:24:07.985Z,3.83
2022-09-12T18:26:35.617Z,3.75
2022-09-12T18:29:03.443Z,3.88
2022-09-12T18:31:31.738Z,3.80
2022-09-12T18:34:02.795Z,3.45
2022-09-12T18:36:30.940Z,3.80
2022-09-12T18:38:59.232Z,3.90
2022-09-12T18:41:28.977Z,3.60
2022-09-12T18:43:57.167Z,4.28
2022-09-12T18:46:25.014Z,4.15
2022-09-12T18:48:55.519Z,4.03
2022-09-12T18:51:25.524Z,4.60
2022-09-12T18:53:54.972Z,3.40
2022-09-12T18:56:23.238Z,3.00
2022-09-12T18:58:54.363Z,3.20
2022-09-12T19:01:26.215Z,3.40
2022-09-12T19:03:55.037Z,3.47
2022-09-12T19:08:50.286Z,4.05
2022-09-12T19:11:18.237Z,4.05
2022-09-12T19:13:46.872Z,3.38
2022-09-12T19:18:42.899Z,3.97
2022-09-12T19:21:15.087Z,4.05
2022-09-12T19:23:42.707Z,3.20
2022-09-12T19:26:11.298Z,3.15
2022-09-12T19:31:07.232Z,3.75
2022-09-12T19:33:34.898Z,3.63
2022-09-12T19:36:03.543Z,4.25
2022-09-12T19:38:31.287Z,4.20
2022-09-12T19:40:59.478Z,4.10
2022-09-12T19:43:27.379Z,3.97
2022-09-12T19:45:55.835Z,3.80
2022-09-12T19:48:23.778Z,4.60
2022-09-12T19:50:51.459Z,4.65
2022-09-12T19:53:19.225Z,4.43
2022-09-12T19:55:47.050Z,4.17
2022-09-12T19:58:14.621Z,4.35
2022-09-12T20:00:42.117Z,4.22
2022-09-12T20:03:09.724Z,4.10
2022-09-12T20:05:42.074Z,3.92
2022-09-12T20:08:10.197Z,3.50
2022-09-12T20:10:37.832Z,3.72
2022-09-12T20:13:05.308Z,3.05
2022-09-12T20:15:32.842Z,2.78
2022-09-12T20:18:00.471Z,2.25
2022-09-12T20:20:28.008Z,2.63
2022-09-12T20:22:55.533Z,2.50
2022-09-12T20:25:23.003Z,2.35
2022-09-12T20:27:50.663Z,2.60
2022-09-12T20:30:18.106Z,2.65
2022-09-12T20:32:45.800Z,2.50
2022-09-12T20:35:13.307Z,2.40
2022-09-12T20:37:40.869Z,2.58
2022-09-12T20:40:09.020Z,2.35
2022-09-12T20:42:36.935Z,2.47
2022-09-12T20:45:05.298Z,2.53
2022-09-12T20:47:32.820Z,2.30
2022-09-12T20:50:00.357Z,2.70
2022-09-12T20:52:27.811Z,2.58
2022-09-12T20:54:55.486Z,2.70
2022-09-12T20:57:23.369Z,3.13
2022-09-12T20:59:51.253Z,3.33
2022-09-12T21:02:18.832Z,2.47
2022-09-12T21:04:46.467Z,3.00
2022-09-12T21:07:13.972Z,2.90
2022-09-12T21:09:41.623Z,3.10
2022-09-12T21:12:54.749Z,3.17
2022-09-12T21:15:05.777Z,3.55
2022-09-12T21:17:33.364Z,3.33
2022-09-12T21:20:02.183Z,2.95
2022-09-12T21:22:30.951Z,3.30
2022-09-12T21:24:58.568Z,2.97
2022-09-12T21:27:26.012Z,2.70
2022-09-12T21:29:55.754Z,2.67
2022-09-12T21:32:23.177Z,2.45
2022-09-12T21:34:50.730Z,2.75
2022-09-12T21:37:18.318Z,2.80
2022-09-12T21:39:45.948Z,2.42
2022-09-12T21:42:13.419Z,3.38
2022-09-12T21:44:40.906Z,2.85
2022-09-12T21:47:08.376Z,3.00
2022-09-12T21:49:36.008Z,3.17
2022-09-12T21:52:03.991Z,3.10
2022-09-12T21:54:31.658Z,3.42
2022-09-12T21:56:59.101Z,3.20
2022-09-12T21:59:26.651Z,3.05
2022-09-12T22:01:55.024Z,2.85
2022-09-12T22:04:25.443Z,2.63
2022-09-12T22:06:53.148Z,2.95
2022-09-12T22:09:20.764Z,3.25
2022-09-12T22:11:48.483Z,3.17
2022-09-12T22:14:16.024Z,3.30
2022-09-12T22:16:44.230Z,3.08
2022-09-12T22:19:13.137Z,3.15
2022-09-12T22:22:00.567Z,3.53
2022-09-12T22:24:28.287Z,3.55
2022-09-12T22:26:56.412Z,3.78
2022-09-12T22:29:23.995Z,3.38
2022-09-12T22:31:51.539Z,3.60
2022-09-12T22:34:19.182Z,3.85
2022-09-12T22:36:48.042Z,4.05
2022-09-12T22:39:15.652Z,3.40
2022-09-12T22:41:43.481Z,3.22
2022-09-12T22:44:11.693Z,3.67
2022-09-12T22:46:39.653Z,3.50
2022-09-12T22:49:07.656Z,3.28
2022-09-12T22:51:35.484Z,3.00
2022-09-12T22:54:03.015Z,3.53
2022-09-12T22:56:30.453Z,3.42
2022-09-12T22:58:58.889Z,3.15
2022-09-12T23:01:26.669Z,3.00
2022-09-12T23:03:54.171Z,2.87
2022-09-12T23:06:21.778Z,2.78
2022-09-12T23:08:49.288Z,2.63
2022-09-12T23:11:17.744Z,2.35
2022-09-12T23:13:46.392Z,2.38
2022-09-12T23:16:18.715Z,2.00
2022-09-12T23:18:46.530Z,2.15
2022-09-12T23:21:15.186Z,2.15
2022-09-12T23:23:42.767Z,2.30
2022-09-12T23:26:13.055Z,2.17
2022-09-12T23:28:41.203Z,2.20
2022-09-12T23:31:10.110Z,2.17
2022-09-12T23:33:37.794Z,2.10
2022-09-12T23:36:14.345Z,1.90
2022-09-12T23:38:43.019Z,2.00
2022-09-12T23:43:37.938Z,2.08
2022-09-12T23:46:05.908Z,2.00
2022-09-12T23:48:34.369Z,1.70
2022-09-12T23:51:01.968Z,1.83
2022-09-12T23:53:29.738Z,1.70
2022-09-12T23:55:57.767Z,1.60
2022-09-12T23:58:25.583Z,1.70
